createdAt,value
2023-04-10T00:00:20.547Z,95428.69
2023-04-10T00:02:49.497Z,95428.78
2023-04-10T00:05:16.382Z,95426.25
2023-04-10T00:07:42.960Z,95427.72
2023-04-10T00:10:10.512Z,95429.34
2023-04-10T00:12:37.838Z,95423.84
2023-04-10T00:15:05.346Z,95428.13
2023-04-10T00:17:32.013Z,95423.66
2023-04-10T00:20:00.526Z,95417.09
2023-04-10T00:22:27.473Z,95417.78
2023-04-10T00:24:54.016Z,95427.78
2023-04-10T00:27:20.874Z,95414.41
2023-04-10T00:29:47.560Z,95423.19
2023-04-10T00:32:14.355Z,95412.50
2023-04-10T00:34:41.078Z,95402.25
2023-04-10T00:37:09.056Z,95407.69
2023-04-10T00:39:35.718Z,95403.88
2023-04-10T00:42:02.317Z,95403.69
2023-04-10T00:44:28.991Z,95395.66
2023-04-10T00:46:55.920Z,95399.34
2023-04-10T00:49:22.710Z,95395.56
2023-04-10T00:51:49.682Z,95389.69
2023-04-10T00:54:17.968Z,95390.97
2023-04-10T00:56:46.847Z,95387.66
2023-04-10T00:59:13.862Z,95380.03
2023-04-10T01:01:40.684Z,95378.50
2023-04-10T01:04:08.493Z,95388.69
2023-04-10T01:06:47.194Z,95369.69
2023-04-10T01:09:29.631Z,95366.06
2023-04-10T01:12:04.542Z,95385.66
2023-04-10T01:14:38.070Z,95366.72
2023-04-10T01:17:08.012Z,95370.50
2023-04-10T01:20:00.488Z,95365.22
2023-04-10T01:22:33.940Z,95354.47
2023-04-10T01:25:21.824Z,95359.97
2023-04-10T01:28:04.227Z,95362.19
2023-04-10T01:30:34.363Z,95367.84
2023-04-10T01:33:02.861Z,95370.03
2023-04-10T01:35:32.031Z,95367.09
2023-04-10T01:38:01.062Z,95364.69
2023-04-10T01:40:29.667Z,95365.41
2023-04-10T01:42:58.323Z,95360.38
2023-04-10T01:45:28.040Z,95354.75
2023-04-10T01:47:56.285Z,95358.25
2023-04-10T01:50:24.442Z,95343.66
2023-04-10T01:52:52.570Z,95352.56
2023-04-10T01:55:20.417Z,95341.75
2023-04-10T01:57:48.998Z,95337.88
2023-04-10T02:00:16.265Z,95349.13
2023-04-10T02:02:43.977Z,95343.13
2023-04-10T02:05:12.075Z,95336.16
2023-04-10T02:07:44.118Z,95331.44
2023-04-10T02:10:14.877Z,95334.88
2023-04-10T02:12:46.561Z,95341.19
2023-04-10T02:15:14.000Z,95334.41
2023-04-10T02:17:41.869Z,95341.94
2023-04-10T02:20:10.640Z,95337.31
2023-04-10T02:22:43.945Z,95324.69
2023-04-10T02:25:10.631Z,95343.59
2023-04-10T02:27:37.932Z,95348.03
2023-04-10T02:30:05.487Z,95345.06
2023-04-10T02:32:35.654Z,95337.25
2023-04-10T02:35:03.047Z,95344.47
2023-04-10T02:37:29.686Z,95334.69
2023-04-10T02:39:57.621Z,95331.91
2023-04-10T02:42:24.156Z,95346.28
2023-04-10T02:44:50.665Z,95334.22
2023-04-10T02:47:18.607Z,95342.56
2023-04-10T02:49:45.237Z,95344.31
2023-04-10T02:52:11.770Z,95338.28
2023-04-10T02:54:38.319Z,95348.88
2023-04-10T02:57:06.639Z,95338.56
2023-04-10T02:59:33.189Z,95339.66
2023-04-10T03:01:59.882Z,95349.94
2023-04-10T03:04:26.780Z,95355.97
2023-04-10T03:06:54.497Z,95351.22
2023-04-10T03:09:21.091Z,95339.63
2023-04-10T03:11:47.673Z,95336.66
2023-04-10T03:14:15.844Z,95341.94
2023-04-10T03:16:42.511Z,95347.91
2023-04-10T03:19:09.203Z,95347.09
2023-04-10T03:21:35.944Z,95333.53
2023-04-10T03:24:02.757Z,95344.16
2023-04-10T03:26:29.461Z,95334.47
2023-04-10T03:28:56.034Z,95337.75
2023-04-10T03:31:24.147Z,95332.22
2023-04-10T03:33:50.970Z,95345.09
2023-04-10T03:36:18.035Z,95343.81
2023-04-10T03:38:45.008Z,95339.19
2023-04-10T03:41:11.582Z,95342.00
2023-04-10T03:43:39.437Z,95345.09
2023-04-10T03:46:06.428Z,95329.88
2023-04-10T03:48:37.551Z,95337.38
2023-04-10T03:51:04.323Z,95337.09
2023-04-10T03:53:35.876Z,95336.91
2023-04-10T03:56:02.992Z,95342.72
2023-04-10T03:58:29.698Z,95344.78
2023-04-10T04:00:56.277Z,95345.72
2023-04-10T04:03:23.146Z,95347.34
2023-04-10T04:05:52.188Z,95350.69
2023-04-10T04:08:18.935Z,95338.84
2023-04-10T04:10:45.594Z,95348.25
2023-04-10T04:13:12.211Z,95349.25
2023-04-10T04:15:38.874Z,95352.19
2023-04-10T04:18:05.699Z,95350.56
2023-04-10T04:20:34.286Z,95345.31
2023-04-10T04:23:02.196Z,95344.69
2023-04-10T04:25:28.767Z,95340.56
2023-04-10T04:27:55.608Z,95340.19
2023-04-10T04:30:22.376Z,95334.41
2023-04-10T04:32:48.974Z,95339.41
2023-04-10T04:35:15.593Z,95352.72
2023-04-10T04:37:42.249Z,95342.47
2023-04-10T04:40:11.296Z,95342.47
2023-04-10T04:42:37.886Z,95346.69
2023-04-10T04:45:05.429Z,95346.44
2023-04-10T04:47:32.041Z,95339.38
2023-04-10T04:49:58.742Z,95350.63
2023-04-10T04:52:25.645Z,95358.69
2023-04-10T04:54:52.337Z,95351.97
2023-04-10T04:57:21.522Z,95359.03
2023-04-10T04:59:48.133Z,95350.53
2023-04-10T05:02:14.820Z,95353.94
2023-04-10T05:04:42.068Z,95356.75
2023-04-10T05:07:08.595Z,95363.28
2023-04-10T05:09:35.265Z,95379.19
2023-04-10T05:12:02.321Z,95368.41
2023-04-10T05:14:30.313Z,95365.84
2023-04-10T05:16:56.914Z,95365.34
2023-04-10T05:19:23.491Z,95363.03
2023-04-10T05:21:50.133Z,95352.19
2023-04-10T05:24:16.696Z,95364.34
2023-04-10T05:26:43.425Z,95369.03
2023-04-10T05:29:10.005Z,95364.38
2023-04-10T05:31:39.010Z,95352.88
2023-04-10T05:34:05.693Z,95358.28
2023-04-10T05:36:32.650Z,95362.56
2023-04-10T05:38:59.222Z,95364.53
2023-04-10T05:41:25.747Z,95381.53
2023-04-10T05:43:52.295Z,95379.66
2023-04-10T05:46:18.894Z,95368.06
2023-04-10T05:48:46.977Z,95371.09
2023-04-10T05:51:13.890Z,95375.41
2023-04-10T05:53:40.613Z,95374.94
2023-04-10T05:56:08.284Z,95384.91
2023-04-10T05:58:34.868Z,95381.78
2023-04-10T06:01:01.489Z,95383.44
2023-04-10T06:03:29.333Z,95376.28
2023-04-10T06:05:58.342Z,95376.00
2023-04-10T06:08:25.435Z,95383.00
2023-04-10T06:10:52.220Z,95384.53
2023-04-10T06:13:18.909Z,95382.53
2023-04-10T06:15:45.547Z,95387.25
2023-04-10T06:18:12.141Z,95384.38
2023-04-10T06:20:38.731Z,95373.69
2023-04-10T06:23:06.857Z,95369.03
2023-04-10T06:25:38.483Z,95375.56
2023-04-10T06:28:05.459Z,95374.00
2023-04-10T06:30:33.941Z,95378.41
2023-04-10T06:33:00.493Z,95369.78
2023-04-10T06:35:28.116Z,95360.25
2023-04-10T06:37:54.641Z,95366.41
2023-04-10T06:40:22.525Z,95356.69
2023-04-10T06:42:49.075Z,95355.09
2023-04-10T06:45:15.663Z,95363.69
2023-04-10T06:47:42.302Z,95355.78
2023-04-10T06:50:09.616Z,95350.25
2023-04-10T06:52:37.945Z,95346.25
2023-04-10T06:55:05.582Z,95343.41
2023-04-10T06:57:33.475Z,95337.50
2023-04-10T07:00:00.266Z,95338.13
2023-04-10T07:02:27.184Z,95342.50
2023-04-10T07:04:53.890Z,95325.72
2023-04-10T07:07:20.678Z,95329.00
2023-04-10T07:09:47.262Z,95329.69
2023-04-10T07:12:13.853Z,95321.63
2023-04-10T07:14:42.302Z,95330.44
2023-04-10T07:17:08.863Z,95327.97
2023-04-10T07:19:35.645Z,95321.00
2023-04-10T07:22:02.249Z,95314.50
2023-04-10T07:24:28.788Z,95313.69
2023-04-10T07:26:57.189Z,95314.13
2023-04-10T07:29:23.811Z,95318.13
2023-04-10T07:31:51.839Z,95316.50
2023-04-10T07:34:18.894Z,95313.69
2023-04-10T07:36:46.155Z,95321.38
2023-04-10T07:39:12.884Z,95323.19
2023-04-10T07:41:40.183Z,95314.13
2023-04-10T07:44:06.785Z,95317.75
2023-04-10T07:46:33.425Z,95319.22
2023-04-10T07:49:01.343Z,95308.09
2023-04-10T07:51:28.900Z,95306.50
2023-04-10T07:53:56.187Z,95306.22
2023-04-10T07:56:23.180Z,95300.88
2023-04-10T07:58:52.277Z,95301.59
2023-04-10T08:01:19.018Z,95301.63
2023-04-10T08:03:47.609Z,95298.88
2023-04-10T08:06:15.958Z,95310.84
2023-04-10T08:08:43.025Z,95301.97
2023-04-10T08:11:23.404Z,95295.09
2023-04-10T08:13:51.635Z,95299.38
2023-04-10T08:16:19.827Z,95285.75
2023-04-10T08:18:47.045Z,95280.72
2023-04-10T08:21:15.014Z,95265.88
2023-04-10T08:23:41.610Z,95264.81
2023-04-10T08:26:08.279Z,95278.50
2023-04-10T08:28:34.850Z,95274.84
2023-04-10T08:31:01.505Z,95274.00
2023-04-10T08:33:28.182Z,95263.47
2023-04-10T08:35:54.947Z,95271.84
2023-04-10T08:38:24.976Z,95277.19
2023-04-10T08:40:51.563Z,95268.16
2023-04-10T08:43:18.199Z,95272.34
2023-04-10T08:45:45.847Z,95272.91
2023-04-10T08:48:14.812Z,95267.81
2023-04-10T08:50:45.346Z,95268.16
2023-04-10T08:53:14.073Z,95267.94
2023-04-10T08:55:44.077Z,95268.66
2023-04-10T08:58:13.517Z,95263.03
2023-04-10T09:00:40.371Z,95260.41
2023-04-10T09:03:11.782Z,95268.72
2023-04-10T09:05:38.627Z,95268.44
2023-04-10T09:08:07.227Z,95274.19
2023-04-10T09:10:36.420Z,95262.75
2023-04-10T09:13:04.359Z,95259.22
2023-04-10T09:15:30.984Z,95260.78
2023-04-10T09:17:59.848Z,95262.09
2023-04-10T09:20:28.685Z,95249.75
2023-04-10T09:22:55.855Z,95249.31
2023-04-10T09:25:33.738Z,95254.13
2023-04-10T09:28:01.726Z,95251.31
2023-04-10T09:30:37.672Z,95252.97
2023-04-10T09:33:21.692Z,95249.78
2023-04-10T09:35:48.619Z,95242.97
2023-04-10T09:38:17.118Z,95241.69
2023-04-10T09:40:44.194Z,95230.97
2023-04-10T09:43:18.821Z,95229.69
2023-04-10T09:45:51.348Z,95229.81
2023-04-10T09:48:18.527Z,95226.91
2023-04-10T09:50:45.585Z,95230.34
2023-04-10T09:53:13.897Z,95220.91
2023-04-10T09:55:41.561Z,95225.50
2023-04-10T09:58:08.366Z,95217.91
2023-04-10T10:00:40.296Z,95215.22
2023-04-10T10:03:10.830Z,95209.03
2023-04-10T10:05:40.704Z,95208.84
2023-04-10T10:08:09.380Z,95198.19
2023-04-10T10:10:38.409Z,95184.91
2023-04-10T10:13:06.190Z,95191.94
2023-04-10T10:15:38.848Z,95198.50
2023-04-10T10:18:17.843Z,95208.56
2023-04-10T10:20:45.942Z,95204.28
2023-04-10T10:23:13.611Z,95185.53
2023-04-10T10:25:40.441Z,95184.47
2023-04-10T10:28:07.487Z,95171.00
2023-04-10T10:30:35.624Z,95170.03
2023-04-10T10:33:05.981Z,95172.59
2023-04-10T10:35:34.771Z,95168.09
2023-04-10T10:38:03.169Z,95157.88
2023-04-10T10:40:32.790Z,95152.41
2023-04-10T10:43:05.478Z,95150.94
2023-04-10T10:45:38.363Z,95147.34
2023-04-10T10:48:06.882Z,95146.28
2023-04-10T10:50:53.814Z,95140.25
2023-04-10T10:53:35.613Z,95147.28
2023-04-10T10:56:36.122Z,95137.41
2023-04-10T10:59:03.282Z,95135.94
2023-04-10T11:01:30.337Z,95126.44
2023-04-10T11:03:57.264Z,95121.00
2023-04-10T11:06:52.348Z,95115.91
2023-04-10T11:09:48.545Z,95114.00
2023-04-10T11:12:15.778Z,95104.44
2023-04-10T11:14:44.233Z,95111.16
2023-04-10T11:17:11.658Z,95091.22
2023-04-10T11:19:59.381Z,95105.16
2023-04-10T11:22:28.075Z,95100.63
2023-04-10T11:25:02.476Z,95099.81
2023-04-10T11:27:45.030Z,95088.31
2023-04-10T11:30:34.561Z,95087.69
2023-04-10T11:33:03.585Z,95084.31
2023-04-10T11:35:31.802Z,95077.84
2023-04-10T11:38:16.952Z,95077.41
2023-04-10T11:41:02.134Z,95074.75
2023-04-10T11:43:28.803Z,95066.03
2023-04-10T11:46:03.465Z,95061.28
2023-04-10T11:48:30.822Z,95059.09
2023-04-10T11:50:57.701Z,95060.56
2023-04-10T11:53:26.798Z,95054.06
2023-04-10T11:55:53.450Z,95062.47
2023-04-10T11:58:24.818Z,95049.63
2023-04-10T12:00:59.297Z,95047.44
2023-04-10T12:03:36.328Z,95045.19
2023-04-10T12:06:03.578Z,95043.88
2023-04-10T12:08:32.793Z,95047.94
2023-04-10T12:11:00.119Z,95043.44
2023-04-10T12:13:27.576Z,95037.59
2023-04-10T12:15:54.666Z,95039.03
2023-04-10T12:18:22.399Z,95043.00
2023-04-10T12:20:51.625Z,95040.94
2023-04-10T12:23:18.322Z,95032.56
2023-04-10T12:25:46.233Z,95034.69
2023-04-10T12:28:17.923Z,95044.66
2023-04-10T12:30:47.461Z,95036.41
2023-04-10T12:33:13.941Z,95040.47
2023-04-10T12:35:42.609Z,95033.81
2023-04-10T12:38:09.233Z,95033.75
2023-04-10T12:40:35.971Z,95030.97
2023-04-10T12:43:03.966Z,95026.16
2023-04-10T12:45:43.239Z,95030.19
2023-04-10T12:48:09.850Z,95033.75
2023-04-10T12:50:47.551Z,95027.22
2023-04-10T12:53:14.191Z,95026.81
2023-04-10T12:55:42.383Z,95026.69
2023-04-10T12:58:20.161Z,95028.22
2023-04-10T13:00:47.791Z,95022.91
2023-04-10T13:03:14.432Z,95024.31
2023-04-10T13:05:41.149Z,95029.25
2023-04-10T13:08:07.705Z,95026.41
2023-04-10T13:10:34.369Z,95018.81
2023-04-10T13:13:00.919Z,95022.06
2023-04-10T13:15:28.791Z,95012.06
2023-04-10T13:17:55.500Z,95011.97
2023-04-10T13:20:23.906Z,95012.31
2023-04-10T13:22:50.441Z,95023.59
2023-04-10T13:25:17.149Z,95012.88
2023-04-10T13:27:43.722Z,95012.19
2023-04-10T13:30:10.702Z,95013.47
2023-04-10T13:32:38.644Z,94988.22
2023-04-10T13:35:05.922Z,94994.41
2023-04-10T13:37:32.635Z,94996.41
2023-04-10T13:39:59.187Z,94992.47
2023-04-10T13:42:25.710Z,94989.75
2023-04-10T13:44:52.321Z,94979.00
2023-04-10T13:47:18.878Z,94972.63
2023-04-10T13:49:46.828Z,94968.69
2023-04-10T13:52:13.388Z,94969.13
2023-04-10T13:54:39.914Z,94974.53
2023-04-10T13:57:06.456Z,94966.75
2023-04-10T13:59:33.128Z,94969.03
2023-04-10T14:01:59.761Z,94973.81
2023-04-10T14:04:26.395Z,94961.03
2023-04-10T14:06:57.765Z,94967.09
2023-04-10T14:09:24.564Z,94957.81
2023-04-10T14:11:51.168Z,94949.16
2023-04-10T14:14:17.807Z,94949.97
2023-04-10T14:16:44.444Z,94944.47
2023-04-10T14:19:11.094Z,94940.19
2023-04-10T14:21:37.734Z,94943.44
2023-04-10T14:24:06.092Z,94937.25
2023-04-10T14:26:32.660Z,94939.72
2023-04-10T14:28:59.270Z,94935.44
2023-04-10T14:31:27.769Z,94933.50
2023-04-10T14:33:56.164Z,94939.44
2023-04-10T14:36:22.900Z,94923.44
2023-04-10T14:38:49.482Z,94930.13
2023-04-10T14:41:17.581Z,94928.28
2023-04-10T14:43:44.767Z,94940.47
2023-04-10T14:46:11.412Z,94932.31
2023-04-10T14:48:38.149Z,94933.03
2023-04-10T14:51:09.591Z,94927.72
2023-04-10T14:53:36.147Z,94926.56
2023-04-10T14:56:09.783Z,94935.28
2023-04-10T14:58:37.673Z,94930.69
2023-04-10T15:01:07.865Z,94924.41
2023-04-10T15:03:34.533Z,94925.84
2023-04-10T15:06:01.579Z,94924.16
2023-04-10T15:08:28.143Z,94919.44
2023-04-10T15:10:55.001Z,94918.72
2023-04-10T15:13:22.312Z,94917.75
2023-04-10T15:15:51.362Z,94910.81
2023-04-10T15:18:18.031Z,94907.84
2023-04-10T15:20:44.565Z,94903.25
2023-04-10T15:23:11.605Z,94898.59
2023-04-10T15:25:38.171Z,94901.81
2023-04-10T15:28:04.914Z,94899.66
2023-04-10T15:30:31.599Z,94894.03
2023-04-10T15:32:59.872Z,94895.63
2023-04-10T15:35:28.588Z,94895.31
2023-04-10T15:37:55.371Z,94898.88
2023-04-10T15:40:21.983Z,94894.94
2023-04-10T15:42:48.523Z,94891.97
2023-04-10T15:45:15.149Z,94891.97
2023-04-10T15:47:41.791Z,94889.06
2023-04-10T15:50:10.952Z,94885.28
2023-04-10T15:52:37.570Z,94886.88
2023-04-10T15:55:04.917Z,94894.56
2023-04-10T15:57:31.519Z,94895.50
2023-04-10T16:00:00.413Z,94901.25
2023-04-10T16:02:27.688Z,94892.34
2023-04-10T16:04:54.529Z,94891.34
2023-04-10T16:07:22.610Z,94889.63
2023-04-10T16:09:49.161Z,94890.00
2023-04-10T16:12:15.824Z,94885.84
2023-04-10T16:14:42.425Z,94882.94
2023-04-10T16:17:09.384Z,94886.72
2023-04-10T16:19:36.051Z,94887.66
2023-04-10T16:22:02.694Z,94888.84
2023-04-10T16:24:30.741Z,94890.50
2023-04-10T16:26:57.377Z,94887.59
2023-04-10T16:29:24.118Z,94895.94
2023-04-10T16:31:50.951Z,94892.47
2023-04-10T16:34:17.625Z,94887.81
2023-04-10T16:36:44.310Z,94895.06
2023-04-10T16:39:10.911Z,94893.44
2023-04-10T16:41:38.927Z,94892.66
2023-04-10T16:44:05.633Z,94892.88
2023-04-10T16:46:33.169Z,94891.38
2023-04-10T16:48:59.896Z,94891.84
2023-04-10T16:51:27.387Z,94887.25
2023-04-10T16:53:54.064Z,94885.72
2023-04-10T16:56:20.722Z,94887.81
2023-04-10T16:58:48.728Z,94882.50
2023-04-10T17:01:17.690Z,94887.34
2023-04-10T17:03:44.543Z,94887.88
2023-04-10T17:06:11.192Z,94889.97
2023-04-10T17:08:37.899Z,94885.13
2023-04-10T17:11:04.835Z,94883.66
2023-04-10T17:13:31.496Z,94883.84
2023-04-10T17:15:59.470Z,94876.53
2023-04-10T17:18:27.081Z,94877.56
2023-04-10T17:20:53.689Z,94872.56
2023-04-10T17:23:20.286Z,94867.97
2023-04-10T17:25:46.896Z,94854.66
2023-04-10T17:28:13.556Z,94855.78
2023-04-10T17:30:40.114Z,94856.59
2023-04-10T17:33:08.205Z,94850.94
2023-04-10T17:35:35.012Z,94850.94
2023-04-10T17:38:01.584Z,94847.72
2023-04-10T17:40:31.945Z,94843.22
2023-04-10T17:42:58.545Z,94846.03
2023-04-10T17:45:25.235Z,94847.66
2023-04-10T17:47:51.905Z,94846.28
2023-04-10T17:50:20.123Z,94841.53
2023-04-10T17:52:46.732Z,94831.75
2023-04-10T17:55:18.324Z,94835.28
2023-04-10T17:57:47.274Z,94845.09
2023-04-10T18:00:15.652Z,94834.88
2023-04-10T18:02:42.978Z,94835.91
2023-04-10T18:05:09.765Z,94827.88
2023-04-10T18:07:38.120Z,94838.56
2023-04-10T18:10:05.094Z,94839.78
2023-04-10T18:12:31.888Z,94839.44
2023-04-10T18:14:58.498Z,94837.38
2023-04-10T18:17:25.087Z,94843.50
2023-04-10T18:19:51.802Z,94848.78
2023-04-10T18:22:18.917Z,94846.84
2023-04-10T18:24:47.411Z,94845.94
2023-04-10T18:27:14.076Z,94841.44
2023-04-10T18:29:41.198Z,94841.66
2023-04-10T18:32:07.792Z,94842.47
2023-04-10T18:34:34.435Z,94840.16
2023-04-10T18:37:01.105Z,94839.59
2023-04-10T18:39:27.688Z,94837.97
2023-04-10T18:41:57.612Z,94842.69
2023-04-10T18:44:24.508Z,94841.19
2023-04-10T18:47:01.358Z,94836.38
2023-04-10T18:49:31.222Z,94836.69
2023-04-10T18:51:57.839Z,94827.50
2023-04-10T18:54:26.917Z,94833.69
2023-04-10T18:56:54.958Z,94839.59
2023-04-10T18:59:21.492Z,94833.09
2023-04-10T19:01:48.164Z,94836.78
2023-04-10T19:04:15.207Z,94828.56
2023-04-10T19:06:46.169Z,94831.63
2023-04-10T19:09:13.372Z,94825.00
2023-04-10T19:11:40.504Z,94822.06
2023-04-10T19:14:08.518Z,94825.66
2023-04-10T19:16:36.896Z,94824.31
2023-04-10T19:19:03.515Z,94828.47
2023-04-10T19:21:30.104Z,94820.75
2023-04-10T19:23:56.721Z,94817.91
2023-04-10T19:26:23.410Z,94808.53
2023-04-10T19:28:49.977Z,94801.34
2023-04-10T19:31:18.010Z,94798.38
2023-04-10T19:33:44.658Z,94792.25
2023-04-10T19:36:11.265Z,94787.56
2023-04-10T19:38:37.935Z,94793.66
2023-04-10T19:41:13.387Z,94787.00
2023-04-10T19:43:40.217Z,94781.41
2023-04-10T19:46:07.027Z,94774.19
2023-04-10T19:48:34.986Z,94773.69
2023-04-10T19:51:04.244Z,94768.19
2023-04-10T19:53:31.210Z,94766.72
2023-04-10T19:55:57.867Z,94777.03
2023-04-10T19:58:39.360Z,94772.16
2023-04-10T20:01:08.521Z,94782.28
2023-04-10T20:03:37.623Z,94782.09
2023-04-10T20:06:07.454Z,94777.50
2023-04-10T20:08:34.372Z,94766.78
2023-04-10T20:11:01.775Z,94778.25
2023-04-10T20:13:28.364Z,94764.72
2023-04-10T20:15:55.187Z,94764.31
2023-04-10T20:18:21.789Z,94765.69
2023-04-10T20:20:49.713Z,94766.19
2023-04-10T20:23:16.291Z,94767.09
2023-04-10T20:25:43.005Z,94757.59
2023-04-10T20:28:09.730Z,94763.84
2023-04-10T20:30:39.467Z,94772.31
2023-04-10T20:33:05.897Z,94767.22
2023-04-10T20:35:32.560Z,94766.56
2023-04-10T20:38:00.514Z,94770.53
2023-04-10T20:40:27.203Z,94767.94
2023-04-10T20:42:54.243Z,94771.56
2023-04-10T20:45:20.888Z,94764.50
2023-04-10T20:47:47.497Z,94773.00
2023-04-10T20:50:14.258Z,94788.47
2023-04-10T20:52:49.937Z,94780.25
2023-04-10T20:55:17.953Z,94771.34
2023-04-10T20:57:44.521Z,94772.34
2023-04-10T21:00:12.028Z,94768.22
2023-04-10T21:02:38.969Z,94778.94
2023-04-10T21:05:06.299Z,94779.31
2023-04-10T21:07:32.942Z,94794.25
2023-04-10T21:09:59.558Z,94801.78
2023-04-10T21:12:27.472Z,94792.09
2023-04-10T21:14:53.976Z,94794.00
2023-04-10T21:17:21.965Z,94808.16
2023-04-10T21:19:48.520Z,94805.97
2023-04-10T21:22:15.050Z,94801.13
2023-04-10T21:24:41.686Z,94806.25
2023-04-10T21:27:08.324Z,94803.47
2023-04-10T21:29:36.192Z,94805.94
2023-04-10T21:32:02.821Z,94807.44
2023-04-10T21:34:30.364Z,94804.31
2023-04-10T21:36:56.944Z,94804.28
2023-04-10T21:39:23.498Z,94807.69
2023-04-10T21:41:50.115Z,94791.16
2023-04-10T21:44:16.665Z,94793.84
2023-04-10T21:46:44.760Z,94799.97
2023-04-10T21:49:11.501Z,94794.31
2023-04-10T21:51:38.598Z,94801.13
2023-04-10T21:54:05.309Z,94800.63
2023-04-10T21:56:31.938Z,94805.00
2023-04-10T21:58:58.488Z,94810.97
2023-04-10T22:01:25.043Z,94807.28
2023-04-10T22:03:53.952Z,94816.63
2023-04-10T22:06:20.979Z,94805.50
2023-04-10T22:08:47.549Z,94809.50
2023-04-10T22:11:14.091Z,94816.16
2023-04-10T22:13:40.648Z,94805.28
2023-04-10T22:16:07.487Z,94803.06
2023-04-10T22:18:34.077Z,94800.03
2023-04-10T22:21:01.969Z,94808.56
2023-04-10T22:23:28.551Z,94794.97
2023-04-10T22:25:55.082Z,94781.44
2023-04-10T22:28:22.355Z,94797.28
2023-04-10T22:30:48.932Z,94783.19
2023-04-10T22:33:15.613Z,94771.16
2023-04-10T22:35:42.284Z,94773.91
2023-04-10T22:38:10.196Z,94779.63
2023-04-10T22:40:36.784Z,94774.00
2023-04-10T22:43:03.349Z,94768.81
2023-04-10T22:45:32.754Z,94765.13
2023-04-10T22:47:59.324Z,94769.06
2023-04-10T22:50:25.929Z,94758.22
2023-04-10T22:52:52.507Z,94759.31
2023-04-10T22:55:20.555Z,94748.03
2023-04-10T22:57:48.254Z,94742.41
2023-04-10T23:00:15.377Z,94748.50
2023-04-10T23:02:42.013Z,94736.66
2023-04-10T23:05:09.274Z,94753.84
2023-04-10T23:07:35.821Z,94765.25
2023-04-10T23:10:02.375Z,94746.94
2023-04-10T23:12:30.313Z,94746.53
2023-04-10T23:14:57.051Z,94743.25
2023-04-10T23:17:23.595Z,94751.16
2023-04-10T23:19:50.175Z,94741.19
2023-04-10T23:22:16.753Z,94734.88
2023-04-10T23:24:43.358Z,94733.22
2023-04-10T23:27:09.896Z,94737.81
2023-04-10T23:29:37.758Z,94717.75
2023-04-10T23:32:04.534Z,94721.81
2023-04-10T23:34:31.066Z,94717.22
2023-04-10T23:36:58.170Z,94700.91
2023-04-10T23:39:24.712Z,94715.69
2023-04-10T23:41:51.429Z,94698.97
2023-04-10T23:44:18.016Z,94695.25
2023-04-10T23:46:46.001Z,94706.78
2023-04-10T23:49:12.541Z,94705.69
2023-04-10T23:51:39.072Z,94701.34
2023-04-10T23:54:06.283Z,94704.81
2023-04-10T23:56:32.888Z,94707.75
2023-04-10T23:58:59.504Z,94705.44
